sensor_id;sensor_type;location;lat;lon;timestamp;P1;durP1;ratioP1;P2;durP2;ratioP2
40339;SDS011;26044;50.864;20.658;2023-02-15T00:01:34;57.55;;;26.48;;
40339;SDS011;26044;50.864;20.658;2023-02-15T00:04:02;54.22;;;26.35;;
40339;SDS011;26044;50.864;20.658;2023-02-15T00:06:29;55.47;;;25.75;;
40339;SDS011;26044;50.864;20.658;2023-02-15T00:08:59;59.83;;;25.65;;
40339;SDS011;26044;50.864;20.658;2023-02-15T00:11:26;56.95;;;25.15;;
40339;SDS011;26044;50.864;20.658;2023-02-15T00:16:33;59.30;;;25.83;;
40339;SDS011;26044;50.864;20.658;2023-02-15T00:19:00;53.90;;;25.85;;
40339;SDS011;26044;50.864;20.658;2023-02-15T00:21:29;56.40;;;26.67;;
40339;SDS011;26044;50.864;20.658;2023-02-15T00:23:57;56.85;;;26.20;;
40339;SDS011;26044;50.864;20.658;2023-02-15T00:26:24;60.33;;;27.73;;
40339;SDS011;26044;50.864;20.658;2023-02-15T00:28:52;58.40;;;26.10;;
40339;SDS011;26044;50.864;20.658;2023-02-15T00:31:20;53.92;;;24.50;;
40339;SDS011;26044;50.864;20.658;2023-02-15T00:33:47;52.45;;;24.75;;
40339;SDS011;26044;50.864;20.658;2023-02-15T00:36:14;57.47;;;26.58;;
40339;SDS011;26044;50.864;20.658;2023-02-15T00:38:42;63.20;;;27.65;;
40339;SDS011;26044;50.864;20.658;2023-02-15T00:41:09;53.63;;;24.15;;
40339;SDS011;26044;50.864;20.658;2023-02-15T00:43:37;55.40;;;24.33;;
40339;SDS011;26044;50.864;20.658;2023-02-15T00:46:04;58.53;;;25.98;;
40339;SDS011;26044;50.864;20.658;2023-02-15T00:48:33;56.58;;;25.38;;
40339;SDS011;26044;50.864;20.658;2023-02-15T00:51:00;57.60;;;24.90;;
40339;SDS011;26044;50.864;20.658;2023-02-15T00:53:28;53.95;;;24.52;;
40339;SDS011;26044;50.864;20.658;2023-02-15T00:55:56;53.03;;;23.42;;
40339;SDS011;26044;50.864;20.658;2023-02-15T00:58:23;54.88;;;25.17;;
40339;SDS011;26044;50.864;20.658;2023-02-15T01:00:51;52.28;;;24.08;;
40339;SDS011;26044;50.864;20.658;2023-02-15T01:03:19;60.47;;;26.90;;
40339;SDS011;26044;50.864;20.658;2023-02-15T01:05:47;56.10;;;25.60;;
40339;SDS011;26044;50.864;20.658;2023-02-15T01:08:15;53.60;;;24.98;;
40339;SDS011;26044;50.864;20.658;2023-02-15T01:10:42;57.50;;;28.02;;
40339;SDS011;26044;50.864;20.658;2023-02-15T01:13:11;60.33;;;27.23;;
40339;SDS011;26044;50.864;20.658;2023-02-15T01:15:42;62.10;;;29.52;;
40339;SDS011;26044;50.864;20.658;2023-02-15T01:18:10;65.85;;;28.60;;
40339;SDS011;26044;50.864;20.658;2023-02-15T01:20:38;59.58;;;28.27;;
40339;SDS011;26044;50.864;20.658;2023-02-15T01:23:08;58.17;;;27.10;;
40339;SDS011;26044;50.864;20.658;2023-02-15T01:25:35;58.15;;;28.98;;
40339;SDS011;26044;50.864;20.658;2023-02-15T01:28:02;60.42;;;27.92;;
40339;SDS011;26044;50.864;20.658;2023-02-15T01:30:30;55.15;;;25.70;;
40339;SDS011;26044;50.864;20.658;2023-02-15T01:32:58;58.35;;;27.15;;
40339;SDS011;26044;50.864;20.658;2023-02-15T01:35:27;61.60;;;27.38;;
40339;SDS011;26044;50.864;20.658;2023-02-15T01:37:55;57.10;;;26.90;;
40339;SDS011;26044;50.864;20.658;2023-02-15T01:40:23;59.92;;;25.85;;
40339;SDS011;26044;50.864;20.658;2023-02-15T01:42:54;58.47;;;26.70;;
40339;SDS011;26044;50.864;20.658;2023-02-15T01:45:28;58.20;;;26.83;;
40339;SDS011;26044;50.864;20.658;2023-02-15T01:48:05;53.92;;;25.95;;
40339;SDS011;26044;50.864;20.658;2023-02-15T01:53:04;57.55;;;24.95;;
40339;SDS011;26044;50.864;20.658;2023-02-15T01:55:34;55.20;;;26.88;;
40339;SDS011;26044;50.864;20.658;2023-02-15T01:58:02;59.80;;;27.67;;
40339;SDS011;26044;50.864;20.658;2023-02-15T02:00:30;63.83;;;30.40;;
40339;SDS011;26044;50.864;20.658;2023-02-15T02:02:59;59.78;;;28.00;;
40339;SDS011;26044;50.864;20.658;2023-02-15T02:05:27;55.85;;;25.00;;
40339;SDS011;26044;50.864;20.658;2023-02-15T02:07:55;54.88;;;25.42;;
40339;SDS011;26044;50.864;20.658;2023-02-15T02:10:23;53.22;;;23.90;;
40339;SDS011;26044;50.864;20.658;2023-02-15T02:13:00;55.20;;;26.50;;
40339;SDS011;26044;50.864;20.658;2023-02-15T02:15:51;61.20;;;26.55;;
40339;SDS011;26044;50.864;20.658;2023-02-15T02:23:29;56.45;;;24.35;;
40339;SDS011;26044;50.864;20.658;2023-02-15T02:26:03;53.22;;;24.00;;
40339;SDS011;26044;50.864;20.658;2023-02-15T02:28:55;52.20;;;24.35;;
40339;SDS011;26044;50.864;20.658;2023-02-15T02:31:43;52.72;;;24.50;;
40339;SDS011;26044;50.864;20.658;2023-02-15T02:34:16;49.13;;;21.63;;
40339;SDS011;26044;50.864;20.658;2023-02-15T02:37:01;48.92;;;23.55;;
40339;SDS011;26044;50.864;20.658;2023-02-15T02:39:33;51.28;;;22.75;;
40339;SDS011;26044;50.864;20.658;2023-02-15T02:44:33;61.85;;;28.05;;
40339;SDS011;26044;50.864;20.658;2023-02-15T02:47:04;51.42;;;25.08;;
40339;SDS011;26044;50.864;20.658;2023-02-15T02:49:35;53.40;;;25.05;;
40339;SDS011;26044;50.864;20.658;2023-02-15T02:52:31;54.30;;;23.83;;
40339;SDS011;26044;50.864;20.658;2023-02-15T02:54:50;53.40;;;24.13;;
40339;SDS011;26044;50.864;20.658;2023-02-15T02:57:17;55.70;;;25.85;;
40339;SDS011;26044;50.864;20.658;2023-02-15T02:59:45;47.83;;;21.85;;
40339;SDS011;26044;50.864;20.658;2023-02-15T03:02:15;60.33;;;25.08;;
40339;SDS011;26044;50.864;20.658;2023-02-15T03:04:45;54.05;;;24.13;;
40339;SDS011;26044;50.864;20.658;2023-02-15T03:09:42;51.65;;;23.55;;
40339;SDS011;26044;50.864;20.658;2023-02-15T03:12:17;51.20;;;23.15;;
40339;SDS011;26044;50.864;20.658;2023-02-15T03:14:50;59.70;;;25.00;;
40339;SDS011;26044;50.864;20.658;2023-02-15T03:17:20;58.78;;;24.52;;
40339;SDS011;26044;50.864;20.658;2023-02-15T03:19:48;57.13;;;24.98;;
40339;SDS011;26044;50.864;20.658;2023-02-15T03:22:21;53.92;;;24.60;;
40339;SDS011;26044;50.864;20.658;2023-02-15T03:24:56;66.32;;;27.42;;
40339;SDS011;26044;50.864;20.658;2023-02-15T03:27:24;55.85;;;24.05;;
40339;SDS011;26044;50.864;20.658;2023-02-15T03:29:55;60.05;;;25.67;;
40339;SDS011;26044;50.864;20.658;2023-02-15T03:32:24;57.20;;;25.90;;
40339;SDS011;26044;50.864;20.658;2023-02-15T03:34:53;64.30;;;26.23;;
40339;SDS011;26044;50.864;20.658;2023-02-15T03:37:24;57.22;;;25.33;;
40339;SDS011;26044;50.864;20.658;2023-02-15T03:39:59;57.35;;;23.88;;
40339;SDS011;26044;50.864;20.658;2023-02-15T03:42:49;53.67;;;24.23;;
40339;SDS011;26044;50.864;20.658;2023-02-15T03:45:21;54.70;;;25.25;;
40339;SDS011;26044;50.864;20.658;2023-02-15T03:47:51;60.40;;;26.05;;
40339;SDS011;26044;50.864;20.658;2023-02-15T03:50:20;58.33;;;26.67;;
40339;SDS011;26044;50.864;20.658;2023-02-15T03:53:09;57.67;;;24.77;;
40339;SDS011;26044;50.864;20.658;2023-02-15T03:55:38;57.35;;;24.80;;
40339;SDS011;26044;50.864;20.658;2023-02-15T03:58:05;60.85;;;26.23;;
40339;SDS011;26044;50.864;20.658;2023-02-15T04:00:59;57.75;;;24.63;;
40339;SDS011;26044;50.864;20.658;2023-02-15T04:03:48;56.28;;;23.75;;
40339;SDS011;26044;50.864;20.658;2023-02-15T04:06:18;62.30;;;25.13;;
40339;SDS011;26044;50.864;20.658;2023-02-15T04:08:46;54.55;;;24.50;;
40339;SDS011;26044;50.864;20.658;2023-02-15T04:11:32;54.33;;;24.33;;
40339;SDS011;26044;50.864;20.658;2023-02-15T04:13:59;52.75;;;25.02;;
40339;SDS011;26044;50.864;20.658;2023-02-15T04:16:46;55.33;;;24.95;;
40339;SDS011;26044;50.864;20.658;2023-02-15T04:19:13;54.03;;;24.13;;
40339;SDS011;26044;50.864;20.658;2023-02-15T04:21:59;56.05;;;24.23;;
40339;SDS011;26044;50.864;20.658;2023-02-15T04:24:45;55.10;;;23.98;;
40339;SDS011;26044;50.864;20.658;2023-02-15T04:27:31;54.00;;;24.65;;
40339;SDS011;26044;50.864;20.658;2023-02-15T04:29:59;65.53;;;27.85;;
40339;SDS011;26044;50.864;20.658;2023-02-15T04:32:26;56.08;;;25.05;;
40339;SDS011;26044;50.864;20.658;2023-02-15T04:34:53;54.15;;;24.75;;
40339;SDS011;26044;50.864;20.658;2023-02-15T04:37:20;64.30;;;25.95;;
40339;SDS011;26044;50.864;20.658;2023-02-15T04:39:47;55.35;;;25.52;;
40339;SDS011;26044;50.864;20.658;2023-02-15T04:42:16;53.83;;;23.98;;
40339;SDS011;26044;50.864;20.658;2023-02-15T04:44:43;54.53;;;24.73;;
40339;SDS011;26044;50.864;20.658;2023-02-15T04:47:10;57.58;;;25.52;;
40339;SDS011;26044;50.864;20.658;2023-02-15T04:49:38;57.40;;;23.98;;
40339;SDS011;26044;50.864;20.658;2023-02-15T04:52:05;54.67;;;23.38;;
40339;SDS011;26044;50.864;20.658;2023-02-15T04:54:32;52.92;;;23.00;;
40339;SDS011;26044;50.864;20.658;2023-02-15T04:57:00;56.97;;;24.90;;
40339;SDS011;26044;50.864;20.658;2023-02-15T04:59:27;59.72;;;26.17;;
40339;SDS011;26044;50.864;20.658;2023-02-15T05:01:54;59.80;;;26.48;;
40339;SDS011;26044;50.864;20.658;2023-02-15T05:04:22;55.55;;;25.20;;
40339;SDS011;26044;50.864;20.658;2023-02-15T05:06:49;56.20;;;23.83;;
40339;SDS011;26044;50.864;20.658;2023-02-15T05:09:16;59.78;;;29.42;;
40339;SDS011;26044;50.864;20.658;2023-02-15T05:11:43;57.80;;;26.80;;
40339;SDS011;26044;50.864;20.658;2023-02-15T05:14:11;57.25;;;23.38;;
40339;SDS011;26044;50.864;20.658;2023-02-15T05:16:38;61.40;;;26.00;;
40339;SDS011;26044;50.864;20.658;2023-02-15T05:19:05;51.00;;;22.75;;
40339;SDS011;26044;50.864;20.658;2023-02-15T05:21:33;53.85;;;25.60;;
40339;SDS011;26044;50.864;20.658;2023-02-15T05:24:00;53.90;;;25.48;;
40339;SDS011;26044;50.864;20.658;2023-02-15T05:26:47;62.85;;;27.90;;
40339;SDS011;26044;50.864;20.658;2023-02-15T05:29:33;64.32;;;26.85;;
40339;SDS011;26044;50.864;20.658;2023-02-15T05:32:00;54.60;;;25.48;;
40339;SDS011;26044;50.864;20.658;2023-02-15T05:34:28;52.15;;;24.02;;
40339;SDS011;26044;50.864;20.658;2023-02-15T05:36:55;58.15;;;24.77;;
40339;SDS011;26044;50.864;20.658;2023-02-15T05:39:23;60.75;;;24.77;;
40339;SDS011;26044;50.864;20.658;2023-02-15T05:41:50;57.10;;;24.70;;
40339;SDS011;26044;50.864;20.658;2023-02-15T05:44:17;64.70;;;26.88;;
40339;SDS011;26044;50.864;20.658;2023-02-15T05:46:44;57.92;;;25.02;;
40339;SDS011;26044;50.864;20.658;2023-02-15T05:49:11;60.00;;;23.90;;
40339;SDS011;26044;50.864;20.658;2023-02-15T05:51:39;54.03;;;23.30;;
40339;SDS011;26044;50.864;20.658;2023-02-15T05:54:06;55.88;;;23.45;;
40339;SDS011;26044;50.864;20.658;2023-02-15T05:56:33;54.50;;;22.80;;
40339;SDS011;26044;50.864;20.658;2023-02-15T05:59:00;53.47;;;23.40;;
40339;SDS011;26044;50.864;20.658;2023-02-15T06:01:27;58.03;;;24.73;;
40339;SDS011;26044;50.864;20.658;2023-02-15T06:03:55;53.22;;;23.90;;
40339;SDS011;26044;50.864;20.658;2023-02-15T06:06:22;55.20;;;23.63;;
40339;SDS011;26044;50.864;20.658;2023-02-15T06:08:50;59.92;;;24.50;;
40339;SDS011;26044;50.864;20.658;2023-02-15T06:11:18;56.38;;;25.52;;
40339;SDS011;26044;50.864;20.658;2023-02-15T06:13:46;61.10;;;25.52;;
40339;SDS011;26044;50.864;20.658;2023-02-15T06:16:16;54.05;;;23.88;;
40339;SDS011;26044;50.864;20.658;2023-02-15T06:18:43;65.97;;;26.52;;
40339;SDS011;26044;50.864;20.658;2023-02-15T06:21:11;62.13;;;26.00;;
40339;SDS011;26044;50.864;20.658;2023-02-15T06:23:38;64.05;;;26.67;;
40339;SDS011;26044;50.864;20.658;2023-02-15T06:26:05;55.50;;;23.13;;
40339;SDS011;26044;50.864;20.658;2023-02-15T06:28:32;57.72;;;24.27;;
40339;SDS011;26044;50.864;20.658;2023-02-15T06:31:00;53.70;;;24.00;;
40339;SDS011;26044;50.864;20.658;2023-02-15T06:33:27;56.47;;;24.58;;
40339;SDS011;26044;50.864;20.658;2023-02-15T06:35:56;61.33;;;26.13;;
40339;SDS011;26044;50.864;20.658;2023-02-15T06:38:23;53.97;;;22.38;;
40339;SDS011;26044;50.864;20.658;2023-02-15T06:40:51;56.40;;;23.58;;
40339;SDS011;26044;50.864;20.658;2023-02-15T06:43:18;57.50;;;24.67;;
40339;SDS011;26044;50.864;20.658;2023-02-15T06:45:45;58.30;;;24.88;;
40339;SDS011;26044;50.864;20.658;2023-02-15T06:48:12;51.85;;;21.52;;
40339;SDS011;26044;50.864;20.658;2023-02-15T06:50:40;53.38;;;23.20;;
40339;SDS011;26044;50.864;20.658;2023-02-15T06:53:07;52.28;;;22.45;;
40339;SDS011;26044;50.864;20.658;2023-02-15T06:55:34;51.95;;;22.17;;
40339;SDS011;26044;50.864;20.658;2023-02-15T06:58:01;51.38;;;22.40;;
40339;SDS011;26044;50.864;20.658;2023-02-15T07:00:29;54.08;;;24.00;;
40339;SDS011;26044;50.864;20.658;2023-02-15T07:02:56;55.85;;;21.58;;
40339;SDS011;26044;50.864;20.658;2023-02-15T07:05:25;52.63;;;22.10;;
40339;SDS011;26044;50.864;20.658;2023-02-15T07:07:57;56.33;;;21.67;;
40339;SDS011;26044;50.864;20.658;2023-02-15T07:10:25;53.70;;;22.40;;
40339;SDS011;26044;50.864;20.658;2023-02-15T07:12:53;52.72;;;21.73;;
40339;SDS011;26044;50.864;20.658;2023-02-15T07:15:20;52.70;;;23.38;;
40339;SDS011;26044;50.864;20.658;2023-02-15T07:17:47;50.75;;;23.10;;
40339;SDS011;26044;50.864;20.658;2023-02-15T07:20:16;53.65;;;21.77;;
40339;SDS011;26044;50.864;20.658;2023-02-15T07:22:44;53.95;;;22.67;;
40339;SDS011;26044;50.864;20.658;2023-02-15T07:25:12;52.45;;;22.42;;
40339;SDS011;26044;50.864;20.658;2023-02-15T07:27:39;53.58;;;21.95;;
40339;SDS011;26044;50.864;20.658;2023-02-15T07:30:10;56.55;;;21.92;;
40339;SDS011;26044;50.864;20.658;2023-02-15T07:32:38;50.47;;;20.33;;
40339;SDS011;26044;50.864;20.658;2023-02-15T07:35:27;52.55;;;23.00;;
40339;SDS011;26044;50.864;20.658;2023-02-15T07:37:54;60.92;;;24.65;;
40339;SDS011;26044;50.864;20.658;2023-02-15T07:40:21;54.90;;;24.23;;
40339;SDS011;26044;50.864;20.658;2023-02-15T07:42:50;53.35;;;23.02;;
40339;SDS011;26044;50.864;20.658;2023-02-15T07:45:19;60.97;;;26.00;;
40339;SDS011;26044;50.864;20.658;2023-02-15T07:47:47;58.35;;;24.08;;
40339;SDS011;26044;50.864;20.658;2023-02-15T07:50:16;61.08;;;24.35;;
40339;SDS011;26044;50.864;20.658;2023-02-15T07:52:44;67.32;;;29.10;;
40339;SDS011;26044;50.864;20.658;2023-02-15T07:55:12;58.30;;;24.60;;
40339;SDS011;26044;50.864;20.658;2023-02-15T07:57:43;59.92;;;25.05;;
40339;SDS011;26044;50.864;20.658;2023-02-15T08:00:11;58.92;;;25.52;;
40339;SDS011;26044;50.864;20.658;2023-02-15T08:02:39;58.08;;;23.02;;
40339;SDS011;26044;50.864;20.658;2023-02-15T08:05:06;59.65;;;22.77;;
40339;SDS011;26044;50.864;20.658;2023-02-15T08:07:34;60.40;;;25.83;;
40339;SDS011;26044;50.864;20.658;2023-02-15T08:10:01;56.67;;;24.13;;
40339;SDS011;26044;50.864;20.658;2023-02-15T08:12:28;55.67;;;23.55;;
40339;SDS011;26044;50.864;20.658;2023-02-15T08:14:55;58.55;;;23.38;;
40339;SDS011;26044;50.864;20.658;2023-02-15T08:17:23;56.95;;;23.98;;
40339;SDS011;26044;50.864;20.658;2023-02-15T08:19:50;55.40;;;23.75;;
40339;SDS011;26044;50.864;20.658;2023-02-15T08:22:17;61.20;;;25.33;;
40339;SDS011;26044;50.864;20.658;2023-02-15T08:24:44;56.97;;;24.23;;
40339;SDS011;26044;50.864;20.658;2023-02-15T08:27:12;62.42;;;25.52;;
40339;SDS011;26044;50.864;20.658;2023-02-15T08:29:39;70.50;;;29.17;;
40339;SDS011;26044;50.864;20.658;2023-02-15T08:32:09;71.82;;;28.27;;
40339;SDS011;26044;50.864;20.658;2023-02-15T08:34:38;70.30;;;28.65;;
40339;SDS011;26044;50.864;20.658;2023-02-15T08:37:06;75.72;;;29.92;;
40339;SDS011;26044;50.864;20.658;2023-02-15T08:39:34;66.35;;;27.75;;
40339;SDS011;26044;50.864;20.658;2023-02-15T08:42:01;64.43;;;27.98;;
40339;SDS011;26044;50.864;20.658;2023-02-15T08:44:28;61.42;;;24.48;;
40339;SDS011;26044;50.864;20.658;2023-02-15T08:46:55;59.30;;;24.13;;
40339;SDS011;26044;50.864;20.658;2023-02-15T08:49:29;73.70;;;27.05;;
40339;SDS011;26044;50.864;20.658;2023-02-15T08:51:56;60.72;;;25.45;;
40339;SDS011;26044;50.864;20.658;2023-02-15T08:54:23;65.75;;;25.73;;
40339;SDS011;26044;50.864;20.658;2023-02-15T08:56:51;59.80;;;24.80;;
40339;SDS011;26044;50.864;20.658;2023-02-15T08:59:19;63.15;;;25.30;;
40339;SDS011;26044;50.864;20.658;2023-02-15T09:01:50;61.75;;;24.23;;
40339;SDS011;26044;50.864;20.658;2023-02-15T09:04:18;61.55;;;24.58;;
40339;SDS011;26044;50.864;20.658;2023-02-15T09:06:48;57.03;;;24.92;;
40339;SDS011;26044;50.864;20.658;2023-02-15T09:09:17;57.58;;;23.33;;
40339;SDS011;26044;50.864;20.658;2023-02-15T09:11:45;59.97;;;25.10;;
40339;SDS011;26044;50.864;20.658;2023-02-15T09:14:14;56.38;;;23.10;;
40339;SDS011;26044;50.864;20.658;2023-02-15T09:16:42;55.20;;;22.48;;
40339;SDS011;26044;50.864;20.658;2023-02-15T09:19:15;52.67;;;23.05;;
40339;SDS011;26044;50.864;20.658;2023-02-15T09:21:44;62.65;;;25.60;;
40339;SDS011;26044;50.864;20.658;2023-02-15T09:24:12;49.70;;;21.52;;
40339;SDS011;26044;50.864;20.658;2023-02-15T09:26:41;62.70;;;24.83;;
40339;SDS011;26044;50.864;20.658;2023-02-15T09:29:09;56.80;;;23.27;;
40339;SDS011;26044;50.864;20.658;2023-02-15T09:31:37;57.53;;;23.08;;
40339;SDS011;26044;50.864;20.658;2023-02-15T09:34:05;65.65;;;25.02;;
40339;SDS011;26044;50.864;20.658;2023-02-15T09:36:33;60.95;;;24.83;;
40339;SDS011;26044;50.864;20.658;2023-02-15T09:44:25;60.75;;;25.15;;
40339;SDS011;26044;50.864;20.658;2023-02-15T09:49:32;63.80;;;27.98;;
40339;SDS011;26044;50.864;20.658;2023-02-15T09:54:45;58.40;;;24.30;;
40339;SDS011;26044;50.864;20.658;2023-02-15T10:10:45;54.78;;;24.05;;
40339;SDS011;26044;50.864;20.658;2023-02-15T10:13:18;51.60;;;22.00;;
40339;SDS011;26044;50.864;20.658;2023-02-15T10:15:53;52.83;;;23.48;;
40339;SDS011;26044;50.864;20.658;2023-02-15T10:21:16;48.33;;;22.58;;
40339;SDS011;26044;50.864;20.658;2023-02-15T10:26:19;47.42;;;21.17;;
40339;SDS011;26044;50.864;20.658;2023-02-15T10:28:53;56.35;;;23.17;;
40339;SDS011;26044;50.864;20.658;2023-02-15T10:37:05;53.15;;;23.90;;
40339;SDS011;26044;50.864;20.658;2023-02-15T10:42:18;47.03;;;20.73;;
40339;SDS011;26044;50.864;20.658;2023-02-15T10:55:46;51.53;;;21.13;;
40339;SDS011;26044;50.864;20.658;2023-02-15T11:03:36;48.60;;;20.88;;
40339;SDS011;26044;50.864;20.658;2023-02-15T11:06:11;51.55;;;20.88;;
40339;SDS011;26044;50.864;20.658;2023-02-15T11:08:41;50.85;;;21.05;;
40339;SDS011;26044;50.864;20.658;2023-02-15T11:11:12;45.72;;;20.10;;
40339;SDS011;26044;50.864;20.658;2023-02-15T11:13:44;44.80;;;19.95;;
40339;SDS011;26044;50.864;20.658;2023-02-15T11:19:01;48.05;;;19.88;;
40339;SDS011;26044;50.864;20.658;2023-02-15T11:21:33;53.00;;;20.35;;
40339;SDS011;26044;50.864;20.658;2023-02-15T11:24:08;46.75;;;20.88;;
40339;SDS011;26044;50.864;20.658;2023-02-15T11:26:38;47.83;;;19.17;;
40339;SDS011;26044;50.864;20.658;2023-02-15T11:29:12;52.28;;;21.45;;
40339;SDS011;26044;50.864;20.658;2023-02-15T11:31:44;50.55;;;20.67;;
40339;SDS011;26044;50.864;20.658;2023-02-15T11:34:15;43.20;;;19.90;;
40339;SDS011;26044;50.864;20.658;2023-02-15T11:36:44;52.40;;;21.73;;
40339;SDS011;26044;50.864;20.658;2023-02-15T11:39:18;46.60;;;20.75;;
40339;SDS011;26044;50.864;20.658;2023-02-15T11:41:47;49.47;;;22.67;;
40339;SDS011;26044;50.864;20.658;2023-02-15T11:47:07;47.03;;;20.92;;
40339;SDS011;26044;50.864;20.658;2023-02-15T11:49:35;51.95;;;22.77;;
40339;SDS011;26044;50.864;20.658;2023-02-15T11:52:13;56.88;;;23.95;;
40339;SDS011;26044;50.864;20.658;2023-02-15T11:54:44;51.13;;;22.02;;
40339;SDS011;26044;50.864;20.658;2023-02-15T11:57:31;52.65;;;22.08;;
40339;SDS011;26044;50.864;20.658;2023-02-15T12:03:03;56.53;;;23.05;;
40339;SDS011;26044;50.864;20.658;2023-02-15T12:05:30;52.25;;;23.05;;
40339;SDS011;26044;50.864;20.658;2023-02-15T12:08:01;51.10;;;22.63;;
40339;SDS011;26044;50.864;20.658;2023-02-15T12:10:38;53.90;;;23.05;;
40339;SDS011;26044;50.864;20.658;2023-02-15T12:13:08;46.67;;;21.70;;
40339;SDS011;26044;50.864;20.658;2023-02-15T12:15:36;53.75;;;23.92;;
40339;SDS011;26044;50.864;20.658;2023-02-15T12:18:03;50.20;;;22.13;;
40339;SDS011;26044;50.864;20.658;2023-02-15T12:20:32;50.47;;;21.98;;
40339;SDS011;26044;50.864;20.658;2023-02-15T12:23:01;51.25;;;23.20;;
40339;SDS011;26044;50.864;20.658;2023-02-15T12:25:33;54.55;;;22.33;;
40339;SDS011;26044;50.864;20.658;2023-02-15T12:28:02;49.10;;;20.42;;
40339;SDS011;26044;50.864;20.658;2023-02-15T12:30:31;43.35;;;19.15;;
40339;SDS011;26044;50.864;20.658;2023-02-15T12:35:46;44.45;;;19.23;;
40339;SDS011;26044;50.864;20.658;2023-02-15T12:40:43;49.72;;;23.15;;
40339;SDS011;26044;50.864;20.658;2023-02-15T12:43:26;54.50;;;23.55;;
40339;SDS011;26044;50.864;20.658;2023-02-15T12:45:54;52.13;;;23.10;;
40339;SDS011;26044;50.864;20.658;2023-02-15T12:48:40;48.65;;;22.05;;
40339;SDS011;26044;50.864;20.658;2023-02-15T12:51:08;52.95;;;22.98;;
40339;SDS011;26044;50.864;20.658;2023-02-15T12:53:36;53.38;;;22.85;;
40339;SDS011;26044;50.864;20.658;2023-02-15T12:56:05;50.83;;;22.15;;
40339;SDS011;26044;50.864;20.658;2023-02-15T12:58:33;47.90;;;22.70;;
40339;SDS011;26044;50.864;20.658;2023-02-15T13:01:02;55.75;;;24.15;;
40339;SDS011;26044;50.864;20.658;2023-02-15T13:03:30;50.40;;;22.98;;
40339;SDS011;26044;50.864;20.658;2023-02-15T13:05:57;53.33;;;25.02;;
40339;SDS011;26044;50.864;20.658;2023-02-15T13:08:28;55.20;;;25.55;;
40339;SDS011;26044;50.864;20.658;2023-02-15T13:11:07;54.80;;;24.30;;
40339;SDS011;26044;50.864;20.658;2023-02-15T13:13:51;51.33;;;24.10;;
40339;SDS011;26044;50.864;20.658;2023-02-15T13:16:19;53.42;;;25.42;;
40339;SDS011;26044;50.864;20.658;2023-02-15T13:18:50;50.67;;;21.95;;
40339;SDS011;26044;50.864;20.658;2023-02-15T13:21:19;52.17;;;23.58;;
40339;SDS011;26044;50.864;20.658;2023-02-15T13:23:47;54.47;;;24.23;;
40339;SDS011;26044;50.864;20.658;2023-02-15T13:26:16;51.70;;;22.02;;
40339;SDS011;26044;50.864;20.658;2023-02-15T13:28:46;49.58;;;22.85;;
40339;SDS011;26044;50.864;20.658;2023-02-15T13:31:15;47.45;;;22.00;;
40339;SDS011;26044;50.864;20.658;2023-02-15T13:33:51;50.50;;;21.95;;
40339;SDS011;26044;50.864;20.658;2023-02-15T13:36:25;50.95;;;22.90;;
40339;SDS011;26044;50.864;20.658;2023-02-15T13:38:57;52.22;;;22.67;;
40339;SDS011;26044;50.864;20.658;2023-02-15T13:41:40;53.70;;;24.15;;
40339;SDS011;26044;50.864;20.658;2023-02-15T13:44:28;51.25;;;22.35;;
40339;SDS011;26044;50.864;20.658;2023-02-15T13:49:42;51.70;;;23.43;;
40339;SDS011;26044;50.864;20.658;2023-02-15T13:52:23;50.10;;;21.90;;
40339;SDS011;26044;50.864;20.658;2023-02-15T13:57:32;50.10;;;21.90;;
40339;SDS011;26044;50.864;20.658;2023-02-15T14:03:19;45.17;;;19.92;;
40339;SDS011;26044;50.864;20.658;2023-02-15T14:08:40;54.40;;;22.15;;
40339;SDS011;26044;50.864;20.658;2023-02-15T14:13:51;54.08;;;22.88;;
40339;SDS011;26044;50.864;20.658;2023-02-15T14:24:24;56.80;;;22.60;;
40339;SDS011;26044;50.864;20.658;2023-02-15T14:27:39;52.15;;;22.98;;
40339;SDS011;26044;50.864;20.658;2023-02-15T14:30:03;52.95;;;23.92;;
40339;SDS011;26044;50.864;20.658;2023-02-15T14:32:33;52.65;;;23.13;;
40339;SDS011;26044;50.864;20.658;2023-02-15T14:35:03;48.60;;;23.00;;
40339;SDS011;26044;50.864;20.658;2023-02-15T14:37:49;49.75;;;23.73;;
40339;SDS011;26044;50.864;20.658;2023-02-15T14:43:08;59.72;;;25.70;;
40339;SDS011;26044;50.864;20.658;2023-02-15T14:45:48;46.08;;;21.35;;
40339;SDS011;26044;50.864;20.658;2023-02-15T14:50:47;50.13;;;24.08;;
40339;SDS011;26044;50.864;20.658;2023-02-15T14:58:35;55.08;;;24.10;;
40339;SDS011;26044;50.864;20.658;2023-02-15T15:01:06;56.83;;;24.75;;
40339;SDS011;26044;50.864;20.658;2023-02-15T15:03:34;53.25;;;22.77;;
40339;SDS011;26044;50.864;20.658;2023-02-15T15:06:02;47.58;;;21.77;;
40339;SDS011;26044;50.864;20.658;2023-02-15T15:08:36;50.05;;;22.67;;
40339;SDS011;26044;50.864;20.658;2023-02-15T15:14:08;68.55;;;37.35;;
40339;SDS011;26044;50.864;20.658;2023-02-15T15:19:04;77.15;;;35.47;;
40339;SDS011;26044;50.864;20.658;2023-02-15T15:29:45;74.82;;;35.55;;
40339;SDS011;26044;50.864;20.658;2023-02-15T15:32:12;121.07;;;58.58;;
40339;SDS011;26044;50.864;20.658;2023-02-15T15:34:55;80.25;;;41.13;;
40339;SDS011;26044;50.864;20.658;2023-02-15T15:37:34;91.10;;;40.45;;
40339;SDS011;26044;50.864;20.658;2023-02-15T15:40:28;80.85;;;36.15;;
40339;SDS011;26044;50.864;20.658;2023-02-15T15:45:43;68.85;;;31.05;;
40339;SDS011;26044;50.864;20.658;2023-02-15T15:48:29;74.57;;;34.05;;
40339;SDS011;26044;50.864;20.658;2023-02-15T15:50:57;77.53;;;36.22;;
40339;SDS011;26044;50.864;20.658;2023-02-15T15:53:26;80.93;;;38.92;;
40339;SDS011;26044;50.864;20.658;2023-02-15T15:55:57;88.18;;;42.97;;
40339;SDS011;26044;50.864;20.658;2023-02-15T15:58:26;84.00;;;37.42;;
40339;SDS011;26044;50.864;20.658;2023-02-15T16:00:54;79.32;;;36.83;;
40339;SDS011;26044;50.864;20.658;2023-02-15T16:03:24;78.55;;;37.75;;
40339;SDS011;26044;50.864;20.658;2023-02-15T16:05:51;89.60;;;40.53;;
40339;SDS011;26044;50.864;20.658;2023-02-15T16:08:32;87.57;;;43.25;;
40339;SDS011;26044;50.864;20.658;2023-02-15T16:11:00;85.65;;;42.05;;
40339;SDS011;26044;50.864;20.658;2023-02-15T16:13:28;88.60;;;44.15;;
40339;SDS011;26044;50.864;20.658;2023-02-15T16:15:55;86.82;;;42.25;;
40339;SDS011;26044;50.864;20.658;2023-02-15T16:18:24;84.40;;;41.72;;
40339;SDS011;26044;50.864;20.658;2023-02-15T16:20:54;97.03;;;42.83;;
40339;SDS011;26044;50.864;20.658;2023-02-15T16:23:48;93.47;;;41.90;;
40339;SDS011;26044;50.864;20.658;2023-02-15T16:29:12;109.65;;;49.88;;
40339;SDS011;26044;50.864;20.658;2023-02-15T16:31:40;113.65;;;49.65;;
40339;SDS011;26044;50.864;20.658;2023-02-15T16:34:16;111.85;;;50.00;;
40339;SDS011;26044;50.864;20.658;2023-02-15T16:36:43;114.00;;;51.58;;
40339;SDS011;26044;50.864;20.658;2023-02-15T16:39:18;111.82;;;50.72;;
40339;SDS011;26044;50.864;20.658;2023-02-15T16:41:45;120.43;;;54.75;;
40339;SDS011;26044;50.864;20.658;2023-02-15T16:44:16;118.82;;;53.13;;